createdAt,value
2019-02-21T08:25:58.325Z,1023.61
2019-02-21T08:26:58.297Z,1023.6
2019-02-21T08:27:58.267Z,1023.68
2019-02-21T08:28:58.234Z,1023.64
2019-02-21T08:29:58.247Z,1023.63
2019-02-21T08:30:58.348Z,1023.67
2019-02-21T08:31:58.168Z,1023.68
2019-02-21T08:32:58.128Z,1023.71
2019-02-21T08:33:58.931Z,1023.71
2019-02-21T08:34:58.081Z,1023.76
2019-02-21T08:35:58.095Z,1023.77
2019-02-21T08:36:58.030Z,1023.74
2019-02-21T08:37:58.004Z,1023.72
2019-02-21T08:38:57.978Z,1023.77
2019-02-21T08:39:58.079Z,1023.76
2019-02-21T08:40:58.034Z,1023.74
2019-02-21T08:41:57.911Z,1023.71
2019-02-21T08:42:57.886Z,1023.74
2019-02-21T08:43:57.865Z,1023.71
2019-02-21T08:44:57.843Z,1023.89
2019-02-21T08:45:57.840Z,1023.74
2019-02-21T08:46:57.796Z,1023.73
2019-02-21T08:47:57.767Z,1023.79
2019-02-21T08:48:57.769Z,1023.78
2019-02-21T08:49:59.592Z,1023.75
2019-02-21T08:50:57.703Z,1023.68
2019-02-21T08:51:57.677Z,1023.7
2019-02-21T08:52:57.654Z,1023.73
2019-02-21T08:53:57.643Z,1023.7
2019-02-21T08:55:00.282Z,1023.74
2019-02-21T08:55:57.589Z,1023.77
2019-02-21T08:56:57.567Z,1023.79
2019-02-21T08:57:57.552Z,1023.81
2019-02-21T08:58:57.547Z,1023.78
2019-02-21T08:59:57.504Z,1023.85
2019-02-21T09:00:57.479Z,1023.81
2019-02-21T09:01:57.461Z,1023.87
2019-02-21T09:02:57.511Z,1023.86
2019-02-21T09:03:57.417Z,1023.85
2019-02-21T09:04:57.392Z,1023.86
2019-02-21T09:05:57.368Z,1023.85
2019-02-21T09:06:57.349Z,1023.83
2019-02-21T09:07:57.332Z,1023.86
2019-02-21T09:08:57.309Z,1023.87
2019-02-21T09:09:57.284Z,1023.9
2019-02-21T09:10:57.262Z,1023.94
2019-02-21T09:11:57.248Z,1023.94
2019-02-21T09:12:57.298Z,1023.94
2019-02-21T09:13:57.197Z,1024.01
2019-02-21T09:14:57.187Z,1024.01
2019-02-21T09:15:57.155Z,1023.99
2019-02-21T09:16:57.136Z,1023.97
2019-02-21T09:17:57.112Z,1024.01
2019-02-21T09:18:57.097Z,1024.02
2019-02-21T09:19:57.169Z,1024.06
2019-02-21T09:20:57.115Z,1024.05
2019-02-21T09:21:57.047Z,1024.11
2019-02-21T09:22:57.094Z,1024.13
2019-02-21T09:23:57.002Z,1024.13
2019-02-21T09:24:57.015Z,1024.11
2019-02-21T09:25:56.945Z,1024.12
2019-02-21T09:26:57.382Z,1024.13
2019-02-21T09:27:56.900Z,1024.08
2019-02-21T09:28:58.543Z,1024.09
2019-02-21T09:29:56.864Z,1024.11
2019-02-21T09:30:56.865Z,1024.06
2019-02-21T09:31:56.816Z,1024.05
2019-02-21T09:32:57.092Z,1024.08
2019-02-21T09:33:56.857Z,1024.17
2019-02-21T09:34:58.688Z,1024.2
2019-02-21T09:35:56.901Z,1024.19
2019-02-21T09:36:56.705Z,1024.22
2019-02-21T09:37:56.686Z,1024.19
2019-02-21T09:38:56.662Z,1024.21
2019-02-21T09:39:56.644Z,1024.18
2019-02-21T09:40:56.626Z,1024.19
2019-02-21T09:41:56.603Z,1024.15
2019-02-21T09:42:56.577Z,1024.16
2019-02-21T09:43:56.694Z,1024.19
2019-02-21T09:44:56.542Z,1024.17
2019-02-21T09:45:56.513Z,1024.23
2019-02-21T09:46:56.523Z,1024.21
2019-02-21T09:47:56.470Z,1024.23
2019-02-21T09:48:56.454Z,1024.2
2019-02-21T09:49:56.583Z,1024.17
2019-02-21T09:50:56.412Z,1024.15
2019-02-21T09:51:56.386Z,1024.17
2019-02-21T09:52:56.371Z,1024.18
2019-02-21T09:53:56.347Z,1024.1
2019-02-21T09:54:56.328Z,1024.09
2019-02-21T09:55:56.301Z,1024.13
2019-02-21T09:56:56.279Z,1024.18
2019-02-21T09:57:56.265Z,1024.1
2019-02-21T09:58:56.241Z,1024.11
2019-02-21T09:59:56.259Z,1024.14
2019-02-21T10:00:56.199Z,1024.15
2019-02-21T10:01:57.590Z,1024.1
2019-02-21T10:02:56.760Z,1024.16
2019-02-21T10:03:57.330Z,1024.16
2019-02-21T10:05:04.407Z,1024.14
2019-02-21T10:05:56.094Z,1024.2
2019-02-21T10:06:56.068Z,1024.12
2019-02-21T10:07:56.154Z,1024.11
2019-02-21T10:08:56.029Z,1024.13
2019-02-21T10:09:56.008Z,1024.14
2019-02-21T10:10:55.987Z,1024.17
2019-02-21T10:11:55.961Z,1024.2
2019-02-21T10:12:55.941Z,1024.22
2019-02-21T10:13:56.068Z,1024.15
2019-02-21T10:14:56.051Z,1024.18
2019-02-21T10:15:55.920Z,1024.15
2019-02-21T10:16:55.870Z,1024.31
2019-02-21T10:17:55.845Z,1024.21
2019-02-21T10:18:55.819Z,1024.17
2019-02-21T10:19:55.796Z,1024.23
2019-02-21T10:20:55.780Z,1024.3
2019-02-21T10:21:55.752Z,1024.29
2019-02-21T10:22:55.727Z,1024.29
2019-02-21T10:23:56.687Z,1024.29
2019-02-21T10:24:57.011Z,1024.26
2019-02-21T10:25:55.664Z,1024.2
2019-02-21T10:26:55.840Z,1024.25
2019-02-21T10:27:55.625Z,1024.25
2019-02-21T10:28:55.605Z,1024.23
2019-02-21T10:29:55.579Z,1024.24
2019-02-21T10:30:55.558Z,1024.31
2019-02-21T10:31:55.546Z,1024.34
2019-02-21T10:32:55.519Z,1024.35
2019-02-21T10:33:55.512Z,1024.33
2019-02-21T10:34:55.495Z,1024.35
2019-02-21T10:35:55.453Z,1024.36
2019-02-21T10:36:55.436Z,1024.34
2019-02-21T10:37:55.415Z,1024.36
2019-02-21T10:38:55.393Z,1024.34
2019-02-21T10:39:55.368Z,1024.32
2019-02-21T10:40:55.349Z,1024.3
2019-02-21T10:41:55.331Z,1024.26
2019-02-21T10:42:55.308Z,1024.26
2019-02-21T10:43:55.282Z,1024.23
2019-02-21T10:44:55.276Z,1024.22
2019-02-21T10:45:55.244Z,1024.2
2019-02-21T10:46:55.222Z,1024.23
2019-02-21T10:47:55.198Z,1024.27
2019-02-21T10:48:55.179Z,1024.32
2019-02-21T10:49:55.170Z,1024.31
2019-02-21T10:50:55.184Z,1024.28
2019-02-21T10:51:55.118Z,1024.31
2019-02-21T10:52:55.091Z,1024.28
2019-02-21T10:53:55.074Z,1024.28
2019-02-21T10:54:55.048Z,1024.25
2019-02-21T10:55:55.060Z,1024.18
2019-02-21T10:56:55.005Z,1024.1
2019-02-21T10:57:54.984Z,1024.06
2019-02-21T10:58:54.963Z,1024.06
2019-02-21T10:59:54.950Z,1024.09
2019-02-21T11:00:54.926Z,1024.1
2019-02-21T11:01:54.899Z,1024.07
2019-02-21T11:02:54.992Z,1024.06
2019-02-21T11:03:54.862Z,1024.04
2019-02-21T11:04:55.262Z,1024.1
2019-02-21T11:05:54.826Z,1024.22
2019-02-21T11:06:54.793Z,1024.12
2019-02-21T11:07:54.773Z,1024.18
2019-02-21T11:08:54.758Z,1024.17
2019-02-21T11:09:54.734Z,1024.18
2019-02-21T11:10:54.713Z,1024.17
2019-02-21T11:11:54.746Z,1024.16
2019-02-21T11:12:54.674Z,1024.18
2019-02-21T11:13:54.800Z,1024.19
2019-02-21T11:14:54.684Z,1024.14
2019-02-21T11:15:54.678Z,1024.2
2019-02-21T11:16:54.584Z,1024.15
2019-02-21T11:17:54.565Z,1024.19
2019-02-21T11:18:54.554Z,1024.15
2019-02-21T11:19:54.518Z,1024.17
2019-02-21T11:20:54.498Z,1024.12
2019-02-21T11:21:54.483Z,1024.11
2019-02-21T11:22:54.459Z,1024.08
2019-02-21T11:23:54.440Z,1024.05
2019-02-21T11:24:54.413Z,1024.02
2019-02-21T11:25:54.408Z,1023.99
2019-02-21T11:26:54.371Z,1024
2019-02-21T11:27:54.356Z,1024.02
2019-02-21T11:28:54.332Z,1024
2019-02-21T11:29:54.307Z,1023.96
2019-02-21T11:30:54.286Z,1023.99
2019-02-21T11:31:54.269Z,1023.96
2019-02-21T11:32:54.251Z,1023.96
2019-02-21T11:33:54.248Z,1023.92
2019-02-21T11:35:05.468Z,1023.92
2019-02-21T11:35:54.187Z,1023.89
2019-02-21T11:36:54.170Z,1023.85
2019-02-21T11:37:54.140Z,1023.88
2019-02-21T11:38:54.119Z,1023.88
2019-02-21T11:39:54.103Z,1023.91
2019-02-21T11:40:54.082Z,1023.9
2019-02-21T11:41:54.058Z,1023.9
2019-02-21T11:42:54.039Z,1023.93
2019-02-21T11:43:54.016Z,1023.93
2019-02-21T11:44:54.011Z,1023.93
2019-02-21T11:45:57.259Z,1024
2019-02-21T11:46:53.958Z,1024
2019-02-21T11:47:53.933Z,1023.98
2019-02-21T11:48:53.924Z,1024.02
2019-02-21T11:49:53.891Z,1024.02
2019-02-21T11:50:53.867Z,1024.01
2019-02-21T11:51:53.861Z,1024.04
2019-02-21T11:52:53.829Z,1024.07
2019-02-21T11:53:53.867Z,1024.09
2019-02-21T11:54:53.789Z,1024.05
2019-02-21T11:55:53.797Z,1024.08
2019-02-21T11:56:53.746Z,1024.07
2019-02-21T11:57:53.824Z,1024.15
2019-02-21T11:58:53.702Z,1024.11
2019-02-21T11:59:53.676Z,1024.13
2019-02-21T12:00:53.659Z,1024.13
2019-02-21T12:01:53.639Z,1024.13
2019-02-21T12:02:53.617Z,1024.07
2019-02-21T12:03:53.593Z,1024.05
2019-02-21T12:04:53.575Z,1024.05
2019-02-21T12:05:53.555Z,1024.06
2019-02-21T12:06:53.546Z,1024.05
2019-02-21T12:07:53.514Z,1024.02
2019-02-21T12:08:53.492Z,1024.06
2019-02-21T12:09:53.471Z,1024.13
2019-02-21T12:10:53.450Z,1024.07
2019-02-21T12:11:53.427Z,1024.11
2019-02-21T12:12:53.433Z,1024.1
2019-02-21T12:13:53.386Z,1024.11
2019-02-21T12:14:53.361Z,1024.14
2019-02-21T12:15:53.344Z,1024.16
2019-02-21T12:16:53.335Z,1024.08
2019-02-21T12:17:53.297Z,1024.1
2019-02-21T12:18:53.274Z,1024.13
2019-02-21T12:19:53.259Z,1024.11
2019-02-21T12:20:53.305Z,1024.1
2019-02-21T12:21:58.833Z,1024.11
2019-02-21T12:22:53.258Z,1024.07
2019-02-21T12:23:53.175Z,1024.08
2019-02-21T12:24:53.154Z,1024.05
2019-02-21T12:25:53.129Z,1024.05
2019-02-21T12:26:53.108Z,1024.01
2019-02-21T12:27:53.141Z,1024.01
2019-02-21T12:28:53.070Z,1024.08
2019-02-21T12:29:53.044Z,1024.05
2019-02-21T12:30:53.030Z,1024.02
2019-02-21T12:31:53.003Z,1024.03
2019-02-21T12:32:53.031Z,1024.04
2019-02-21T12:33:52.970Z,1023.99
2019-02-21T12:34:53.090Z,1024.01
2019-02-21T12:35:52.921Z,1023.98
2019-02-21T12:36:52.898Z,1023.94
2019-02-21T12:37:52.880Z,1023.94
2019-02-21T12:38:52.862Z,1023.89
2019-02-21T12:39:52.870Z,1023.91
2019-02-21T12:40:52.811Z,1023.79
2019-02-21T12:41:52.800Z,1023.8
2019-02-21T12:42:52.775Z,1023.74
2019-02-21T12:43:52.754Z,1023.72
2019-02-21T12:44:52.733Z,1023.73
2019-02-21T12:45:52.785Z,1023.74
2019-02-21T12:46:52.687Z,1023.72
2019-02-21T12:47:53.918Z,1023.8
2019-02-21T12:48:52.645Z,1023.79
2019-02-21T12:49:55.302Z,1023.76
2019-02-21T12:50:52.724Z,1023.77
2019-02-21T12:51:52.585Z,1023.72
2019-02-21T12:52:52.568Z,1023.72
2019-02-21T12:53:52.540Z,1023.74
2019-02-21T12:54:52.518Z,1023.68
2019-02-21T12:55:52.514Z,1023.75
2019-02-21T12:56:52.490Z,1023.73
2019-02-21T12:57:52.456Z,1023.7
2019-02-21T12:58:52.435Z,1023.72
2019-02-21T12:59:52.412Z,1023.66
2019-02-21T13:00:52.409Z,1023.7
2019-02-21T13:01:52.371Z,1023.78
2019-02-21T13:02:52.354Z,1023.73
2019-02-21T13:03:52.373Z,1023.73
2019-02-21T13:04:52.311Z,1023.83
2019-02-21T13:05:52.292Z,1023.8
2019-02-21T13:06:52.269Z,1023.84
2019-02-21T13:07:52.245Z,1023.88
2019-02-21T13:08:52.224Z,1023.86
2019-02-21T13:09:52.211Z,1023.89
2019-02-21T13:10:52.190Z,1023.88
2019-02-21T13:11:52.162Z,1023.89
2019-02-21T13:12:52.152Z,1023.88
2019-02-21T13:13:52.123Z,1023.88
2019-02-21T13:14:52.103Z,1023.91
2019-02-21T13:15:52.081Z,1023.97
2019-02-21T13:16:52.056Z,1023.94
2019-02-21T13:17:52.047Z,1023.87
2019-02-21T13:18:52.014Z,1023.95
2019-02-21T13:19:51.998Z,1023.92
2019-02-21T13:20:51.971Z,1023.96
2019-02-21T13:21:51.949Z,1023.94
2019-02-21T13:22:51.930Z,1024.01
2019-02-21T13:23:51.917Z,1024.03
2019-02-21T13:24:51.923Z,1024.01
2019-02-21T13:25:51.867Z,1024.06
2019-02-21T13:26:51.846Z,1024.05
2019-02-21T13:27:51.832Z,1024.09
2019-02-21T13:28:51.806Z,1023.98
2019-02-21T13:29:54.515Z,1024.12
2019-02-21T13:30:51.815Z,1024.09
2019-02-21T13:31:51.742Z,1024.09
2019-02-21T13:32:51.730Z,1024.13
2019-02-21T13:33:51.704Z,1024.09
2019-02-21T13:34:51.678Z,1024.11
2019-02-21T13:35:52.857Z,1024.07
2019-02-21T13:36:51.635Z,1024.07
2019-02-21T13:37:51.614Z,1024.1
2019-02-21T13:38:51.594Z,1024.07
2019-02-21T13:39:51.576Z,1024.07
2019-02-21T13:40:51.598Z,1024.08
2019-02-21T13:41:51.530Z,1024.06
2019-02-21T13:42:51.508Z,1024.13
2019-02-21T13:43:51.493Z,1024.13
2019-02-21T13:44:51.650Z,1024.13
2019-02-21T13:45:51.470Z,1024.17
2019-02-21T13:46:51.440Z,1024.16
2019-02-21T13:47:51.475Z,1024.17
2019-02-21T13:48:51.389Z,1024.13
2019-02-21T13:49:51.363Z,1024.17
2019-02-21T13:50:51.346Z,1024.15
2019-02-21T13:51:51.321Z,1024.17
2019-02-21T13:52:51.303Z,1024.15
2019-02-21T13:53:52.287Z,1024.17
2019-02-21T13:54:51.260Z,1024.17
2019-02-21T13:55:51.252Z,1024.21
2019-02-21T13:56:51.215Z,1024.27
2019-02-21T13:57:51.218Z,1024.21
2019-02-21T13:58:51.177Z,1024.21
2019-02-21T13:59:51.153Z,1024.29
2019-02-21T14:00:51.136Z,1024.26
2019-02-21T14:01:51.114Z,1024.25
2019-02-21T14:02:51.093Z,1024.23
2019-02-21T14:03:51.072Z,1024.23
2019-02-21T14:04:51.046Z,1024.26
2019-02-21T14:05:51.030Z,1024.21
2019-02-21T14:06:51.004Z,1024.21
2019-02-21T14:07:51.002Z,1024.18
2019-02-21T14:08:50.971Z,1024.22
2019-02-21T14:09:50.942Z,1024.17
2019-02-21T14:10:50.971Z,1024.18
2019-02-21T14:11:50.905Z,1024.17
2019-02-21T14:12:50.883Z,1024.18
2019-02-21T14:13:50.887Z,1024.18
2019-02-21T14:14:50.875Z,1024.17
2019-02-21T14:15:50.821Z,1024.19
2019-02-21T14:16:50.799Z,1024.19
2019-02-21T14:17:50.773Z,1024.17
2019-02-21T14:18:50.789Z,1024.17
2019-02-21T14:19:52.943Z,1024.2
2019-02-21T14:20:50.716Z,1024.17
2019-02-21T14:21:50.696Z,1024.23
2019-02-21T14:22:50.709Z,1024.15
2019-02-21T14:23:50.648Z,1024.19
2019-02-21T14:24:50.632Z,1024.21
2019-02-21T14:25:50.611Z,1024.2
2019-02-21T14:26:50.590Z,1024.22
2019-02-21T14:27:50.586Z,1024.22
2019-02-21T14:28:50.544Z,1024.19
2019-02-21T14:29:50.529Z,1024.21
2019-02-21T14:30:50.585Z,1024.19
2019-02-21T14:31:50.487Z,1024.17
2019-02-21T14:32:50.464Z,1024.15
2019-02-21T14:33:51.851Z,1024.15
2019-02-21T14:34:50.425Z,1024.16
2019-02-21T14:35:50.408Z,1024.12
2019-02-21T14:36:50.376Z,1024.13
2019-02-21T14:37:50.363Z,1024.12
2019-02-21T14:38:50.334Z,1024.08
2019-02-21T14:39:50.324Z,1024.06
2019-02-21T14:40:50.322Z,1024.05
2019-02-21T14:41:50.271Z,1024.09
2019-02-21T14:42:50.250Z,1024.12
2019-02-21T14:43:50.234Z,1024.11
2019-02-21T14:44:50.214Z,1024.09
2019-02-21T14:45:50.195Z,1024.14
2019-02-21T14:46:50.400Z,1024.11
2019-02-21T14:47:50.151Z,1024.25
2019-02-21T14:48:50.130Z,1024.1
2019-02-21T14:49:50.113Z,1024.15
2019-02-21T14:50:50.085Z,1024.13
2019-02-21T14:51:50.066Z,1024.11
2019-02-21T14:52:50.046Z,1024.18
2019-02-21T14:53:50.023Z,1024.12
2019-02-21T14:54:50.004Z,1024.12
2019-02-21T14:55:49.981Z,1024.14
2019-02-21T14:56:49.962Z,1024.13
2019-02-21T14:57:49.949Z,1024.09
2019-02-21T14:58:49.924Z,1024.11
2019-02-21T14:59:49.902Z,1024.13
2019-02-21T15:00:49.874Z,1024.12
2019-02-21T15:01:49.857Z,1024.12
2019-02-21T15:02:49.839Z,1024.13
2019-02-21T15:03:49.811Z,1024.16
2019-02-21T15:04:49.790Z,1024.2
2019-02-21T15:05:49.774Z,1024.16
2019-02-21T15:06:49.786Z,1024.18
2019-02-21T15:07:49.734Z,1024.17
2019-02-21T15:08:49.711Z,1024.13
2019-02-21T15:09:49.690Z,1024.12
2019-02-21T15:10:49.668Z,1024.13
2019-02-21T15:11:49.648Z,1024.15
2019-02-21T15:12:49.622Z,1024.16
2019-02-21T15:13:49.695Z,1024.1
2019-02-21T15:14:49.630Z,1024.12
2019-02-21T15:15:49.563Z,1024.1
2019-02-21T15:16:49.543Z,1024.12
2019-02-21T15:17:49.518Z,1024.13
2019-02-21T15:18:49.503Z,1024.12
2019-02-21T15:19:49.485Z,1024.11
2019-02-21T15:20:49.460Z,1024.08
2019-02-21T15:21:49.434Z,1024.07
2019-02-21T15:22:49.413Z,1024.08
2019-02-21T15:23:49.393Z,1024.08
2019-02-21T15:24:49.376Z,1024.06
2019-02-21T15:25:49.349Z,1024.11
2019-02-21T15:26:49.336Z,1024.07
2019-02-21T15:27:49.311Z,1024.07
2019-02-21T15:28:49.293Z,1024.05
2019-02-21T15:29:49.289Z,1024.1
2019-02-21T15:30:49.254Z,1024.06
2019-02-21T15:31:49.271Z,1024.05
2019-02-21T15:32:49.208Z,1024.05
2019-02-21T15:33:49.188Z,1023.98
2019-02-21T15:34:49.221Z,1023.98
2019-02-21T15:35:49.142Z,1023.99
2019-02-21T15:36:49.239Z,1024.01
2019-02-21T15:37:49.103Z,1024.04
2019-02-21T15:38:49.099Z,1023.97
2019-02-21T15:39:49.085Z,1024
2019-02-21T15:40:49.037Z,1023.97
2019-02-21T15:41:49.032Z,1024.02
2019-02-21T15:42:49.012Z,1023.96
2019-02-21T15:43:49.012Z,1024
2019-02-21T15:44:48.967Z,1024.03
2019-02-21T15:45:48.932Z,1023.94
2019-02-21T15:46:48.933Z,1023.92
2019-02-21T15:47:49.023Z,1023.95
2019-02-21T15:48:48.961Z,1023.97
2019-02-21T15:49:48.851Z,1023.94
2019-02-21T15:50:48.828Z,1024
2019-02-21T15:51:48.824Z,1024
2019-02-21T15:52:48.792Z,1024
2019-02-21T15:53:48.784Z,1023.99
2019-02-21T15:54:48.747Z,1024.02
2019-02-21T15:55:48.751Z,1024.03
2019-02-21T15:56:48.845Z,1024.01
2019-02-21T15:57:48.700Z,1023.99
2019-02-21T15:58:48.668Z,1024.04
2019-02-21T15:59:48.643Z,1024.03
2019-02-21T16:00:48.624Z,1024.07
2019-02-21T16:01:48.601Z,1024.08
2019-02-21T16:02:48.582Z,1024.08
2019-02-21T16:03:48.557Z,1024.07
2019-02-21T16:04:48.543Z,1024.1
2019-02-21T16:05:48.525Z,1024.1
2019-02-21T16:06:51.537Z,1024.12
2019-02-21T16:07:48.496Z,1024.14
2019-02-21T16:08:48.453Z,1024.14
2019-02-21T16:09:48.436Z,1024.14
2019-02-21T16:10:48.415Z,1024.18
2019-02-21T16:11:48.397Z,1024.18
2019-02-21T16:12:48.758Z,1024.17
2019-02-21T16:13:48.483Z,1024.17
2019-02-21T16:14:48.328Z,1024.17
2019-02-21T16:15:48.319Z,1024.2
2019-02-21T16:16:48.285Z,1024.19
2019-02-21T16:17:48.271Z,1024.19
2019-02-21T16:18:48.256Z,1024.22
2019-02-21T16:19:48.234Z,1024.17
2019-02-21T16:20:48.209Z,1024.21
2019-02-21T16:21:48.221Z,1024.12
2019-02-21T16:22:48.205Z,1024.16
2019-02-21T16:23:48.145Z,1024.15
2019-02-21T16:24:48.229Z,1024.14
2019-02-21T16:25:48.100Z,1024.16
2019-02-21T16:26:48.079Z,1024.14
2019-02-21T16:27:48.071Z,1024.18
2019-02-21T16:28:48.041Z,1024.2
2019-02-21T16:29:48.016Z,1024.23
2019-02-21T16:30:47.999Z,1024.24
2019-02-21T16:31:47.974Z,1024.27
2019-02-21T16:32:47.962Z,1024.25
2019-02-21T16:33:47.937Z,1024.28
2019-02-21T16:34:47.925Z,1024.29
2019-02-21T16:35:47.891Z,1024.36
2019-02-21T16:36:47.873Z,1024.31
2019-02-21T16:37:47.854Z,1024.32
2019-02-21T16:38:47.833Z,1024.36
2019-02-21T16:39:47.808Z,1024.41
2019-02-21T16:40:47.787Z,1024.38
2019-02-21T16:41:47.769Z,1024.41
2019-02-21T16:42:47.750Z,1024.43
2019-02-21T16:43:47.729Z,1024.43
2019-02-21T16:44:47.706Z,1024.42
2019-02-21T16:45:53.383Z,1024.45
2019-02-21T16:46:47.663Z,1024.45
2019-02-21T16:47:47.648Z,1024.43
2019-02-21T16:48:47.622Z,1024.46
2019-02-21T16:49:47.607Z,1024.48
2019-02-21T16:50:48.486Z,1024.52
2019-02-21T16:51:47.563Z,1024.52
2019-02-21T16:52:47.542Z,1024.54
2019-02-21T16:53:47.516Z,1024.56
2019-02-21T16:54:47.496Z,1024.62
2019-02-21T16:55:47.480Z,1024.6
2019-02-21T16:56:47.458Z,1024.58
2019-02-21T16:57:47.437Z,1024.64
2019-02-21T16:58:47.417Z,1024.62
2019-02-21T16:59:47.396Z,1024.63
2019-02-21T17:00:52.661Z,1024.62
2019-02-21T17:01:47.354Z,1024.63
2019-02-21T17:02:47.335Z,1024.65
2019-02-21T17:03:47.326Z,1024.68
2019-02-21T17:04:47.302Z,1024.67
2019-02-21T17:05:47.267Z,1024.69
2019-02-21T17:06:47.246Z,1024.67
2019-02-21T17:07:47.229Z,1024.74
2019-02-21T17:08:47.208Z,1024.75
2019-02-21T17:09:47.190Z,1024.75
2019-02-21T17:10:47.163Z,1024.78
2019-02-21T17:11:47.146Z,1024.73
2019-02-21T17:12:47.125Z,1024.72
2019-02-21T17:13:47.101Z,1024.76
2019-02-21T17:14:47.079Z,1024.76
2019-02-21T17:15:47.057Z,1024.79
2019-02-21T17:16:47.042Z,1024.8
2019-02-21T17:17:47.017Z,1024.79
2019-02-21T17:18:47.000Z,1024.8
2019-02-21T17:19:46.976Z,1024.81
2019-02-21T17:20:46.958Z,1024.82
2019-02-21T17:21:46.938Z,1024.81
2019-02-21T17:22:46.916Z,1024.81
2019-02-21T17:23:46.891Z,1024.82
2019-02-21T17:24:46.871Z,1024.82
2019-02-21T17:25:46.853Z,1024.82
2019-02-21T17:26:46.833Z,1024.87
2019-02-21T17:27:46.808Z,1024.9
2019-02-21T17:28:46.787Z,1024.92
2019-02-21T17:29:46.770Z,1024.92
2019-02-21T17:30:46.749Z,1024.98
2019-02-21T17:31:46.729Z,1024.91
2019-02-21T17:32:46.704Z,1024.94
2019-02-21T17:33:46.688Z,1024.98
2019-02-21T17:34:46.663Z,1025.01
2019-02-21T17:35:46.645Z,1024.99
2019-02-21T17:36:46.619Z,1025.01
2019-02-21T17:37:46.599Z,1024.99
2019-02-21T17:38:46.578Z,1025.04
2019-02-21T17:39:46.564Z,1025.05
2019-02-21T17:40:46.540Z,1025.12
2019-02-21T17:41:46.516Z,1025.07
2019-02-21T17:42:46.495Z,1025.07
2019-02-21T17:43:47.936Z,1025.11
2019-02-21T17:44:46.457Z,1025.17
2019-02-21T17:45:46.456Z,1025.12
2019-02-21T17:46:46.415Z,1025.15
2019-02-21T17:47:46.392Z,1025.2
2019-02-21T17:48:46.373Z,1025.16
2019-02-21T17:49:46.350Z,1025.19
2019-02-21T17:50:46.332Z,1025.21
2019-02-21T17:51:46.306Z,1025.24
2019-02-21T17:52:46.291Z,1025.24
2019-02-21T17:53:46.273Z,1025.25
2019-02-21T17:54:46.250Z,1025.31
2019-02-21T17:55:46.224Z,1025.3
2019-02-21T17:56:46.204Z,1025.32
2019-02-21T17:57:46.188Z,1025.38
2019-02-21T17:58:46.166Z,1025.36
2019-02-21T17:59:46.151Z,1025.38
2019-02-21T18:00:46.120Z,1025.35
2019-02-21T18:01:46.104Z,1025.44
2019-02-21T18:02:46.088Z,1025.45
2019-02-21T18:03:46.061Z,1025.44
2019-02-21T18:04:46.037Z,1025.45
2019-02-21T18:05:46.020Z,1025.43
2019-02-21T18:06:45.994Z,1025.4
2019-02-21T18:07:45.987Z,1025.43
2019-02-21T18:08:45.953Z,1025.39
2019-02-21T18:09:45.932Z,1025.4
2019-02-21T18:10:45.911Z,1025.42
2019-02-21T18:11:45.913Z,1025.39
2019-02-21T18:12:45.874Z,1025.42
2019-02-21T18:13:45.848Z,1025.42
2019-02-21T18:14:45.828Z,1025.42
2019-02-21T18:15:45.812Z,1025.43
2019-02-21T18:16:45.790Z,1025.44
2019-02-21T18:17:45.813Z,1025.43
2019-02-21T18:18:45.745Z,1025.48
2019-02-21T18:19:45.724Z,1025.47
2019-02-21T18:20:45.706Z,1025.48
2019-02-21T18:21:45.686Z,1025.48
2019-02-21T18:22:45.666Z,1025.49
2019-02-21T18:23:45.640Z,1025.55
2019-02-21T18:24:45.623Z,1025.53
2019-02-21T18:25:45.619Z,1025.5
2019-02-21T18:26:45.582Z,1025.54
2019-02-21T18:27:45.560Z,1025.51
2019-02-21T18:28:45.539Z,1025.54
2019-02-21T18:29:45.521Z,1025.54
2019-02-21T18:30:45.498Z,1025.53
2019-02-21T18:31:45.484Z,1025.51
2019-02-21T18:32:45.453Z,1025.53
2019-02-21T18:33:45.441Z,1025.55
2019-02-21T18:34:45.415Z,1025.54
2019-02-21T18:35:45.394Z,1025.6
2019-02-21T18:36:45.371Z,1025.58
2019-02-21T18:37:47.642Z,1025.56
2019-02-21T18:38:45.325Z,1025.52
2019-02-21T18:39:45.310Z,1025.55
2019-02-21T18:40:45.285Z,1025.54
2019-02-21T18:41:45.264Z,1025.53
2019-02-21T18:42:45.246Z,1025.55
2019-02-21T18:43:45.226Z,1025.54
2019-02-21T18:44:45.206Z,1025.53
2019-02-21T18:45:45.181Z,1025.55
2019-02-21T18:46:45.159Z,1025.56
2019-02-21T18:47:45.143Z,1025.61
2019-02-21T18:48:45.129Z,1025.63
2019-02-21T18:49:45.096Z,1025.6
2019-02-21T18:50:45.076Z,1025.58
2019-02-21T18:51:45.056Z,1025.59
2019-02-21T18:52:45.044Z,1025.59
2019-02-21T18:53:45.013Z,1025.62
2019-02-21T18:54:44.996Z,1025.61
2019-02-21T18:55:44.975Z,1025.62
2019-02-21T18:56:44.955Z,1025.61
2019-02-21T18:57:44.934Z,1025.61
2019-02-21T18:58:44.913Z,1025.64
2019-02-21T18:59:44.887Z,1025.68
2019-02-21T19:00:44.870Z,1025.63
2019-02-21T19:01:44.851Z,1025.66
2019-02-21T19:02:44.829Z,1025.61
2019-02-21T19:03:44.804Z,1025.61
2019-02-21T19:04:44.784Z,1025.64
2019-02-21T19:05:44.766Z,1025.61
2019-02-21T19:06:44.746Z,1025.59
2019-02-21T19:07:44.725Z,1025.55
2019-02-21T19:08:44.703Z,1025.55
2019-02-21T19:09:44.685Z,1025.57
2019-02-21T19:10:44.659Z,1025.57
2019-02-21T19:11:44.642Z,1025.58
2019-02-21T19:12:44.616Z,1025.57
2019-02-21T19:13:44.603Z,1025.62
2019-02-21T19:14:44.576Z,1025.57
2019-02-21T19:15:44.558Z,1025.59
2019-02-21T19:16:44.539Z,1025.59
2019-02-21T19:17:44.525Z,1025.59
2019-02-21T19:18:44.494Z,1025.6
2019-02-21T19:19:44.474Z,1025.59
2019-02-21T19:20:44.454Z,1025.58
2019-02-21T19:21:44.430Z,1025.58
2019-02-21T19:22:44.407Z,1025.58
2019-02-21T19:23:44.390Z,1025.56
2019-02-21T19:24:44.371Z,1025.54
2019-02-21T19:25:44.377Z,1025.53
2019-02-21T19:26:44.328Z,1025.55
2019-02-21T19:27:44.304Z,1025.55
2019-02-21T19:28:44.299Z,1025.53
2019-02-21T19:29:44.266Z,1025.58
2019-02-21T19:30:44.246Z,1025.57
2019-02-21T19:31:44.222Z,1025.58
2019-02-21T19:32:44.201Z,1025.62
2019-02-21T19:33:44.185Z,1025.65
2019-02-21T19:34:44.163Z,1025.61
2019-02-21T19:35:44.139Z,1025.64
2019-02-21T19:36:44.117Z,1025.67
2019-02-21T19:37:44.102Z,1025.68
2019-02-21T19:38:44.080Z,1025.67
2019-02-21T19:39:44.059Z,1025.67
2019-02-21T19:40:44.034Z,1025.68
2019-02-21T19:41:44.017Z,1025.68
2019-02-21T19:42:43.994Z,1025.76
2019-02-21T19:43:43.977Z,1025.74
2019-02-21T19:44:43.950Z,1025.79
2019-02-21T19:45:43.928Z,1025.78
2019-02-21T19:46:43.909Z,1025.77
2019-02-21T19:47:43.892Z,1025.78
2019-02-21T19:48:43.878Z,1025.84
2019-02-21T19:49:43.846Z,1025.86
2019-02-21T19:50:43.826Z,1025.88
2019-02-21T19:51:43.808Z,1025.87
2019-02-21T19:52:43.787Z,1025.87
2019-02-21T19:53:43.762Z,1025.9
2019-02-21T19:54:43.752Z,1025.92
2019-02-21T19:55:43.720Z,1025.93
2019-02-21T19:56:43.704Z,1025.98
2019-02-21T19:57:43.685Z,1025.96
2019-02-21T19:58:43.663Z,1025.95
2019-02-21T19:59:43.638Z,1025.97
2019-02-21T20:00:43.621Z,1025.96
2019-02-21T20:01:43.599Z,1025.92
2019-02-21T20:02:43.578Z,1025.93
2019-02-21T20:03:43.553Z,1025.97
2019-02-21T20:04:43.533Z,1025.98
2019-02-21T20:05:43.519Z,1025.98
2019-02-21T20:06:43.494Z,1025.99
2019-02-21T20:07:43.472Z,1025.99
2019-02-21T20:08:43.449Z,1025.98
2019-02-21T20:09:43.433Z,1026.02
2019-02-21T20:10:43.411Z,1026
2019-02-21T20:11:43.391Z,1025.99
2019-02-21T20:12:43.365Z,1026
2019-02-21T20:13:43.348Z,1026.01
2019-02-21T20:14:43.324Z,1026
2019-02-21T20:15:43.307Z,1026.04
2019-02-21T20:16:45.685Z,1026.07
2019-02-21T20:17:43.261Z,1026.07
2019-02-21T20:18:43.240Z,1026.14
2019-02-21T20:19:43.254Z,1026.16
2019-02-21T20:20:43.214Z,1026.19
2019-02-21T20:21:43.196Z,1026.19
2019-02-21T20:22:43.161Z,1026.2
2019-02-21T20:23:43.136Z,1026.23
2019-02-21T20:24:43.118Z,1026.24
2019-02-21T20:25:43.097Z,1026.26
2019-02-21T20:26:43.077Z,1026.23
2019-02-21T20:27:43.067Z,1026.26
2019-02-21T20:28:43.031Z,1026.28
2019-02-21T20:29:43.014Z,1026.33
2019-02-21T20:30:42.994Z,1026.33
2019-02-21T20:31:42.973Z,1026.3
2019-02-21T20:32:42.946Z,1026.29
2019-02-21T20:33:42.926Z,1026.35